Flight Track Log - Related Links

Times and Time Zones

All times are in EST time to prevent confusion due to time zone crossing. See the USC105 flight status page for this flight to view local times or setup timezone preferences in your user account.

Time Position Orientation Groundspeed Altitude Reporting Facility
EST Latitude Longitude Course Direction KTS MPH feet Rate Location/Type
Fri 06:41:37 AM 41.9000 -88.2000 143° Southeast 135 155 2,200  Level Chicago TRACON
Fri 06:42:37 AM 41.8833 -88.1833 143° Southeast 135 155 3,700 900 Climbing Chicago TRACON
Fri 06:43:37 AM 41.8333 -88.1500 154° Southeast 180 207 4,000 150 Climbing Chicago TRACON
Fri 06:44:37 AM 41.8000 -88.1000 132° Southeast 198 228 4,000  Level Chicago TRACON
Fri 06:45:55 AM 41.7500 -88.0167 129° Southeast 201 231 4,000  Level Chicago TRACON
Fri 06:46:49 AM 41.7500 -87.9500 90° East 197 227 4,000 263 Level Chicago TRACON
Fri 06:47:49 AM 41.7500 -87.8833 90° East 181 208 4,500 500 Climbing Chicago TRACON
Fri 06:48:49 AM 41.7500 -87.8167 90° East 182 209 5,000 263 Climbing Chicago TRACON
Fri 06:49:43 AM 41.7500 -87.7500 90° East 200 230 5,000  Level Chicago TRACON
Fri 06:50:44 AM 41.7500 -87.6833 90° East 204 235 5,000  Level Chicago TRACON
Fri 06:51:32 AM 41.7500 -87.6167 90° East 204 235 5,000  Level Chicago TRACON
Fri 06:52:32 AM 41.7500 -87.5500 90° East 205 236 5,000 48 Level Chicago TRACON
Fri 06:53:38 AM 41.7500 -87.4667 90° East 204 235 5,100 275 Climbing Chicago TRACON
Fri 06:54:21 AM 41.7547 -87.4239 82° East 155 178 5,500 524 Climbing Chicago Center
Fri 06:55:21 AM 41.7558 -87.3542 89° East 186 214 6,000 248 Climbing Chicago Center
Fri 06:56:22 AM 41.7533 -87.2769 92° East 200 230 6,000  Level Chicago Center
Fri 06:57:22 AM 41.7528 -87.1836 90° East 210 242 6,000  Level Chicago Center
Fri 06:58:22 AM 41.7544 -87.1050 88° East 211 243 6,000  Level Chicago Center
Fri 06:59:23 AM 41.7550 -87.0267 89° East 211 243 6,000 248 Level Chicago Center
Fri 07:00:23 AM 41.7656 -86.9544 79° East 203 234 6,500 446 Climbing Chicago Center
Fri 07:01:24 AM 41.7792 -86.8808 76° East 202 232 6,900 248 Climbing Chicago Center
Fri 07:02:24 AM 41.7922 -86.8033 77° East 209 241 7,000 50 Climbing Chicago Center
Fri 07:03:25 AM 41.8064 -86.7231 77° East 219 252 7,000  Level Chicago Center
Fri 07:04:25 AM 41.8217 -86.6436 76° East 220 253 7,000  Level Chicago Center
Fri 07:05:26 AM 41.8336 -86.5633 79° East 220 253 7,000  Level Chicago Center
Fri 07:06:26 AM 41.8464 -86.4833 78° East 220 253 7,000  Level Chicago Center
Fri 07:07:27 AM 41.8603 -86.4031 77° East 222 255 7,000  Level Chicago Center
Fri 07:08:27 AM 41.8736 -86.3222 77° East 222 255 7,000  Level Chicago Center
Fri 07:09:28 AM 41.8867 -86.2425 78° East 221 254 7,000  Level Chicago Center
Fri 07:10:28 AM 41.8969 -86.1614 80° East 219 252 7,000  Level Chicago Center
Fri 07:11:29 AM 41.9092 -86.0811 78° East 220 253 7,000  Level Chicago Center
Fri 07:12:29 AM 41.9214 -85.9992 79° East 223 257 7,000  Level Chicago Center
Fri 07:13:30 AM 41.9336 -85.9183 78° East 221 254 7,000  Level Chicago Center
Fri 07:14:31 AM 41.9464 -85.8367 78° East 223 257 7,000  Level Chicago Center
Fri 07:15:31 AM 41.9589 -85.7547 78° East 223 257 7,000  Level Chicago Center
Fri 07:16:32 AM 41.9711 -85.6733 79° East 223 257 7,000  Level Chicago Center
Fri 07:17:33 AM 41.9825 -85.5903 80° East 224 258 7,000  Level Chicago Center
Fri 07:18:33 AM 41.9936 -85.5078 80° East 225 259 7,000  Level Chicago Center
Fri 07:19:34 AM 42.0050 -85.4247 80° East 225 259 7,000  Level Chicago Center
Fri 07:20:35 AM 42.0156 -85.3411 80° East 226 260 7,000  Level Chicago Center
Fri 07:21:35 AM 42.0261 -85.2586 80° East 224 258 7,000  Level Chicago Center
Fri 07:22:36 AM 42.0361 -85.1761 81° East 223 257 7,000  Level Chicago Center
Fri 07:23:37 AM 42.0456 -85.0928 81° East 225 259 7,000  Level Chicago Center
Fri 07:24:38 AM 42.0547 -85.0097 82° East 225 259 7,000  Level Chicago Center
Fri 07:25:38 AM 42.0678 -84.9108 80° East 224 258 7,000  Level Chicago Center
Fri 07:26:39 AM 42.0764 -84.8283 82° East 223 257 7,000 49 Level Chicago Center
Fri 07:27:40 AM 42.0869 -84.7450 80° East 225 259 7,100  Climbing Chicago Center
Fri 07:28:41 AM 42.0958 -84.6625 82° East 224 258 7,000 -50 Descending Chicago Center
Fri 07:29:41 AM 42.1067 -84.5792 80° East 224 258 7,000  Level Chicago Center
Fri 07:30:42 AM 42.1161 -84.4931 82° East 224 258 7,000 49 Level Chicago Center
Fri 07:31:43 AM 42.1269 -84.4114 80° East 222 255 7,100 49 Climbing Chicago Center
Fri 07:32:44 AM 42.1372 -84.3294 80° East 222 255 7,100  Level Chicago Center
Fri 07:33:24 AM 42.1422 -84.2736 83° East 225 259 7,100  Level Cleveland Center
Fri 07:33:58 AM 42.1494 -84.2286 78° East 224 258 7,100  Level Cleveland Center
Fri 07:34:25 AM 42.1542 -84.1825 82° East 226 260 7,100  Level Cleveland Center
Fri 07:35:00 AM 42.1597 -84.1458 78° East 224 258 7,100 -98 Level Cleveland Center
Fri 07:35:26 AM 42.1633 -84.0994 84° East 229 264 7,000 -295 Descending Cleveland Center
Fri 07:36:01 AM 42.1703 -84.0614 76° East 225 259 6,800 -327 Descending Cleveland Center
Fri 07:36:21 AM 42.1742 -84.0192 83° East 235 270 6,700 -290 Descending Cleveland Center
Fri 07:37:03 AM 42.1800 -83.9750 80° East 231 266 6,500 -627 Descending Cleveland Center
Fri 07:37:28 AM 42.1900 -83.9314 73° East 223 257 6,000 -984 Descending Cleveland Center
Fri 07:38:04 AM 42.2053 -83.8811 68° East 226 260 5,500 -787 Descending Cleveland Center
Fri 07:38:29 AM 42.2108 -83.8556 74° East 223 257 5,200 -677 Descending Cleveland Center
Fri 07:39:06 AM 42.2272 -83.8075 65° Northeast 221 254 4,800 -778 Descending Cleveland Center
Fri 07:39:23 AM 42.2333 -83.7883 67° East 203 234 4,500 -774 Descending Cleveland Center
Fri 07:40:08 AM 42.2542 -83.7414 59° Northeast 210 242 4,000 -787 Descending Cleveland Center
Fri 07:40:24 AM 42.2633 -83.7281 47° Northeast 198 228 3,700 -871 Descending Cleveland Center
Fri 07:41:10 AM 42.2942 -83.6894 43° Northeast 207 238 3,100 -537 Descending Cleveland Center
Fri 07:41:31 AM 42.3100 -83.6697 43° Northeast 192 221 3,100  Level Cleveland Center
Fri 07:42:11 AM 42.3306 -83.6411 46° Northeast 194 223 3,100  Level Cleveland Center
Fri 07:42:32 AM 42.3450 -83.6242 41° Northeast 175 201 3,100  Level Cleveland Center
Fri 07:43:13 AM 42.3642 -83.5944 49° Northeast 180 207 3,100 -218 Level Cleveland Center
Fri 07:43:27 AM 42.3658 -83.5733 84° East 183 211 2,900 -774 Descending Cleveland Center
Fri 07:44:15 AM 42.3633 -83.5228 94° East 189 217 2,300 -689 Descending Cleveland Center
Fri 07:44:28 AM 42.3569 -83.5014 112° Southeast 181 208 2,200 -295 Descending Cleveland Center
Fri 07:45:16 AM 42.3392 -83.4633 122° Southeast 182 209 2,000 -300 Descending Cleveland Center
Fri 07:45:28 AM 42.3242 -83.4628 178° South 170 196 1,900 -290 Descending Cleveland Center
Fri 07:46:18 AM 42.2953 -83.4731 195° South 169 194 1,700 -218 Descending Cleveland Center
Fri 07:46:23 AM 42.2856 -83.4772 198° South 154 177 1,700 -387 Level Cleveland Center
Fri 07:47:20 AM 42.2600 -83.4961 209° Southwest 156 180 1,300 -575 Descending Cleveland Center
Fri 07:47:36 AM 42.2539 -83.5064 231° Southwest 106 122 1,000 -581 Descending Cleveland Center
Fri 07:48:22 AM 42.2414 -83.5242 226° Southwest 122 140 700 -391 Descending Cleveland Center

Login

Don't have an account? Register now (free) for customized features, flight alerts, and more!